Time;durP1;ratioP1;P1;durP2;ratioP2;P2;SDS_P1;SDS_P2;PMS_P1;PMS_P2;Temp;Humidity;BMP_temperature;BMP_pressure;BME280_temperature;BME280_humidity;BME280_pressure;Samples;Min_cycle;Max_cycle;Signal;HPM_P1;HPM_P2
2023/01/13 00:01:09;;;;;;;1.63;1.00;;;;;;;;;;5055074;28;20804;-81
2023/01/13 00:03:35;;;;;;;2.05;1.40;;;;;;;;;;5072431;28;20864;-81
2023/01/13 00:06:01;;;;;;;1.73;1.17;;;;;;;;;;5055380;28;20377;-81
2023/01/13 00:08:27;;;;;;;2.50;1.30;;;;;;;;;;5053908;28;20902;-81
2023/01/13 00:10:53;;;;;;;2.50;1.30;;;;;;;;;;5072189;28;20482;-81
2023/01/13 00:13:25;;;;;;;2.63;1.10;;;;;;;;;;5072204;28;20372;-81
2023/01/13 00:16:01;;;;;;;2.95;1.25;;;;;;;;;;5072293;28;20371;-81
2023/01/13 00:18:27;;;;;;;3.17;1.40;;;;;;;;;;5072103;28;20475;-82
2023/01/13 00:21:03;;;;;;;2.38;1.27;;;;;;;;;;5072005;28;20463;-81
2023/01/13 00:23:30;;;;;;;2.20;1.20;;;;;;;;;;5072129;28;20395;-81
2023/01/13 00:25:57;;;;;;;1.88;1.13;;;;;;;;;;5072032;28;20375;-81
2023/01/13 00:28:23;;;;;;;2.67;1.20;;;;;;;;;;5071826;28;20407;-80
2023/01/13 00:30:50;;;;;;;1.85;1.00;;;;;;;;;;5071776;28;20411;-81
2023/01/13 00:33:16;;;;;;;1.50;0.88;;;;;;;;;;5071028;28;20384;-81
2023/01/13 00:35:42;;;;;;;1.85;0.93;;;;;;;;;;5071753;28;20418;-81
2023/01/13 00:38:08;;;;;;;1.90;0.95;;;;;;;;;;5062379;28;20389;-81
2023/01/13 00:40:34;;;;;;;1.98;0.90;;;;;;;;;;5065598;28;20383;-79
2023/01/13 00:45:44;;;;;;;2.00;1.30;;;;;;;;;;5071344;28;20379;-81
2023/01/13 00:48:10;;;;;;;2.78;1.65;;;;;;;;;;5058203;28;20377;-81
2023/01/13 00:50:36;;;;;;;2.47;1.60;;;;;;;;;;5071673;28;20426;-81
2023/01/13 00:53:02;;;;;;;3.30;2.10;;;;;;;;;;5069168;28;21072;-81
2023/01/13 00:55:31;;;;;;;3.53;1.95;;;;;;;;;;5053447;28;20405;-81
2023/01/13 00:58:02;;;;;;;2.58;1.50;;;;;;;;;;5068234;28;20808;-81
2023/01/13 01:00:28;;;;;;;2.30;1.20;;;;;;;;;;5051141;28;20374;-81
2023/01/13 01:02:54;;;;;;;2.10;1.00;;;;;;;;;;5062708;28;20463;-81
2023/01/13 01:05:20;;;;;;;3.05;1.25;;;;;;;;;;5071489;28;20391;-81
2023/01/13 01:07:46;;;;;;;2.30;0.90;;;;;;;;;;5071613;28;20395;-81
2023/01/13 01:10:12;;;;;;;2.22;1.10;;;;;;;;;;5069853;28;20391;-81
2023/01/13 01:12:38;;;;;;;1.80;1.02;;;;;;;;;;5069644;28;20792;-81
2023/01/13 01:15:06;;;;;;;1.83;1.00;;;;;;;;;;5069579;28;20854;-81
2023/01/13 01:17:32;;;;;;;3.78;1.02;;;;;;;;;;5069665;28;20371;-81
2023/01/13 01:19:58;;;;;;;1.17;0.73;;;;;;;;;;5069724;28;20411;-81
2023/01/13 01:22:24;;;;;;;2.30;1.33;;;;;;;;;;5069699;28;20996;-81
2023/01/13 01:24:50;;;;;;;3.10;2.00;;;;;;;;;;5069703;28;20410;-81
2023/01/13 01:27:16;;;;;;;3.35;2.08;;;;;;;;;;5055724;28;20465;-81
2023/01/13 01:29:42;;;;;;;4.15;2.10;;;;;;;;;;5071052;28;20414;-81
2023/01/13 01:32:08;;;;;;;3.23;2.00;;;;;;;;;;5071146;28;20407;-79
2023/01/13 01:34:34;;;;;;;2.50;1.90;;;;;;;;;;5071230;28;20379;-80
2023/01/13 01:37:00;;;;;;;2.63;1.42;;;;;;;;;;5071300;28;20440;-79
2023/01/13 01:39:26;;;;;;;1.98;1.33;;;;;;;;;;5071104;28;20892;-79
2023/01/13 01:45:07;;;;;;;1.90;1.15;;;;;;;;;;5072688;28;20917;-79
2023/01/13 01:47:33;;;;;;;2.38;1.33;;;;;;;;;;5052102;28;20414;-79
2023/01/13 01:50:01;;;;;;;3.63;2.08;;;;;;;;;;5054243;28;20875;-79
2023/01/13 01:52:33;;;;;;;2.55;1.23;;;;;;;;;;5068511;28;20380;-79
2023/01/13 01:55:01;;;;;;;3.20;1.60;;;;;;;;;;5074851;28;20450;-81
2023/01/13 01:57:30;;;;;;;2.00;1.27;;;;;;;;;;5074792;28;20372;-81
2023/01/13 01:59:57;;;;;;;2.58;1.48;;;;;;;;;;5074543;28;20436;-80
2023/01/13 02:02:23;;;;;;;1.70;1.17;;;;;;;;;;5057622;28;20372;-79
2023/01/13 02:04:51;;;;;;;2.22;0.90;;;;;;;;;;5074597;28;20380;-79
2023/01/13 02:07:22;;;;;;;2.38;1.00;;;;;;;;;;5068990;28;20885;-79
2023/01/13 02:09:48;;;;;;;3.22;1.17;;;;;;;;;;5054447;28;20452;-79
2023/01/13 02:12:33;;;;;;;2.10;1.20;;;;;;;;;;5054514;28;20433;-79
2023/01/13 02:15:02;;;;;;;1.65;1.10;;;;;;;;;;5054778;28;20453;-80
2023/01/13 02:17:37;;;;;;;2.40;1.10;;;;;;;;;;5076910;28;20377;-80
2023/01/13 02:20:03;;;;;;;1.50;1.00;;;;;;;;;;5075122;28;20907;-80
2023/01/13 02:22:29;;;;;;;2.13;1.00;;;;;;;;;;5088135;28;20411;-81
2023/01/13 02:25:11;;;;;;;1.87;1.10;;;;;;;;;;5094695;28;20375;-80
2023/01/13 02:27:47;;;;;;;2.28;1.30;;;;;;;;;;5082010;28;20848;-80
2023/01/13 02:33:01;;;;;;;2.03;1.40;;;;;;;;;;5075325;28;20880;-80
2023/01/13 02:35:29;;;;;;;2.40;1.33;;;;;;;;;;5074324;28;20380;-80
2023/01/13 02:37:56;;;;;;;2.05;1.42;;;;;;;;;;5074128;28;20371;-80
2023/01/13 02:40:33;;;;;;;2.85;1.60;;;;;;;;;;5074067;28;20384;-80
2023/01/13 02:46:03;;;;;;;2.75;1.60;;;;;;;;;;5073887;28;20457;-80
2023/01/13 02:48:30;;;;;;;2.70;1.63;;;;;;;;;;5067373;28;20380;-80
2023/01/13 02:50:59;;;;;;;2.85;1.30;;;;;;;;;;5073605;28;20919;-80
2023/01/13 02:53:27;;;;;;;2.53;1.30;;;;;;;;;;5054558;28;20398;-79
2023/01/13 02:55:55;;;;;;;1.87;1.10;;;;;;;;;;5039914;28;20378;-80
2023/01/13 02:58:22;;;;;;;2.10;1.10;;;;;;;;;;5046375;28;20455;-80
2023/01/13 03:00:51;;;;;;;1.55;0.90;;;;;;;;;;5036231;28;20425;-81
2023/01/13 03:03:21;;;;;;;1.17;0.93;;;;;;;;;;5036413;28;20470;-80
2023/01/13 03:05:50;;;;;;;2.03;1.00;;;;;;;;;;5033799;28;20410;-81
2023/01/13 03:08:17;;;;;;;1.30;0.90;;;;;;;;;;5039144;28;20389;-81
2023/01/13 03:10:52;;;;;;;1.52;1.00;;;;;;;;;;5037342;28;20930;-81
2023/01/13 03:13:37;;;;;;;1.10;0.80;;;;;;;;;;5040557;28;20372;-80
2023/01/13 03:16:05;;;;;;;1.73;0.80;;;;;;;;;;5033325;28;20387;-81
2023/01/13 03:18:40;;;;;;;1.70;1.00;;;;;;;;;;5037230;28;20423;-80
2023/01/13 03:21:06;;;;;;;2.65;1.02;;;;;;;;;;5025839;28;20797;-81
2023/01/13 03:23:40;;;;;;;2.22;1.00;;;;;;;;;;5036535;28;20419;-81
2023/01/13 03:26:28;;;;;;;1.42;0.90;;;;;;;;;;5035245;28;20510;-80
2023/01/13 03:29:14;;;;;;;1.67;0.80;;;;;;;;;;5017056;28;20407;-81
2023/01/13 03:31:45;;;;;;;1.90;1.00;;;;;;;;;;5032488;28;20439;-81
2023/01/13 03:34:15;;;;;;;2.03;1.00;;;;;;;;;;5037622;28;20463;-81
2023/01/13 03:36:41;;;;;;;1.33;0.90;;;;;;;;;;5036604;28;20382;-80
2023/01/13 03:39:10;;;;;;;1.90;1.08;;;;;;;;;;5039132;28;20748;-81
2023/01/13 03:41:39;;;;;;;1.20;0.70;;;;;;;;;;5034858;28;20391;-79
2023/01/13 03:44:23;;;;;;;2.42;1.02;;;;;;;;;;5036739;28;20395;-79
2023/01/13 03:46:49;;;;;;;3.10;1.10;;;;;;;;;;5032984;28;20737;-81
2023/01/13 03:49:18;;;;;;;2.88;0.90;;;;;;;;;;5035945;28;20383;-81
2023/01/13 03:51:48;;;;;;;2.00;1.05;;;;;;;;;;5039824;28;20407;-79
2023/01/13 03:54:15;;;;;;;2.05;1.05;;;;;;;;;;5036937;28;20414;-80
2023/01/13 03:56:43;;;;;;;3.58;1.40;;;;;;;;;;5038081;28;20886;-81
2023/01/13 03:59:10;;;;;;;2.08;1.50;;;;;;;;;;5045374;28;20438;-80
2023/01/13 04:01:41;;;;;;;3.05;1.42;;;;;;;;;;5030782;28;20943;-79
2023/01/13 04:04:10;;;;;;;2.10;1.10;;;;;;;;;;5034450;28;20402;-80
2023/01/13 04:06:45;;;;;;;2.03;1.20;;;;;;;;;;5063522;28;20378;-80
2023/01/13 04:09:15;;;;;;;1.77;0.90;;;;;;;;;;5049242;28;20385;-80
2023/01/13 04:11:47;;;;;;;1.73;1.00;;;;;;;;;;5070235;28;20499;-80
2023/01/13 04:14:14;;;;;;;1.65;1.10;;;;;;;;;;5072088;28;20403;-79
2023/01/13 04:16:40;;;;;;;1.80;1.20;;;;;;;;;;5071988;28;20375;-79
2023/01/13 04:19:06;;;;;;;2.27;1.00;;;;;;;;;;5071080;28;20518;-79
2023/01/13 04:21:33;;;;;;;3.15;1.10;;;;;;;;;;5071901;28;20449;-79
2023/01/13 04:23:59;;;;;;;1.85;0.90;;;;;;;;;;5071954;28;20387;-79
2023/01/13 04:26:25;;;;;;;3.03;1.25;;;;;;;;;;5072052;28;20379;-79
2023/01/13 04:28:53;;;;;;;2.22;0.90;;;;;;;;;;5071569;28;20407;-79
2023/01/13 04:31:19;;;;;;;1.33;0.90;;;;;;;;;;5071842;28;20453;-79
2023/01/13 04:33:45;;;;;;;2.30;0.80;;;;;;;;;;5071909;28;20403;-79
2023/01/13 04:36:11;;;;;;;1.77;0.88;;;;;;;;;;5071867;28;20924;-80
2023/01/13 04:38:37;;;;;;;1.73;1.00;;;;;;;;;;5073268;28;20922;-80
2023/01/13 04:41:04;;;;;;;2.10;0.70;;;;;;;;;;5050217;28;20411;-80
2023/01/13 04:43:30;;;;;;;2.10;0.70;;;;;;;;;;5048958;28;20383;-79
2023/01/13 04:45:56;;;;;;;1.83;0.70;;;;;;;;;;5053747;28;20783;-79
2023/01/13 04:48:22;;;;;;;2.77;0.80;;;;;;;;;;5053701;28;20375;-79
2023/01/13 04:50:47;;;;;;;1.73;0.70;;;;;;;;;;5071536;28;20403;-79
2023/01/13 04:53:13;;;;;;;1.42;0.70;;;;;;;;;;5071724;28;20429;-79
2023/01/13 04:55:39;;;;;;;2.03;0.63;;;;;;;;;;5070857;28;20372;-79
2023/01/13 04:58:06;;;;;;;1.70;0.90;;;;;;;;;;5071346;28;20783;-79
2023/01/13 05:00:32;;;;;;;2.33;0.80;;;;;;;;;;5061985;28;20387;-79
2023/01/13 05:02:58;;;;;;;2.38;0.70;;;;;;;;;;5064218;28;20379;-79
2023/01/13 05:05:25;;;;;;;1.48;0.80;;;;;;;;;;5071511;28;20384;-79
2023/01/13 05:07:51;;;;;;;1.95;0.70;;;;;;;;;;5071520;28;20459;-79
2023/01/13 05:10:17;;;;;;;2.10;0.80;;;;;;;;;;5059172;28;20953;-80
2023/01/13 05:18:12;;;;;;;2.25;0.80;;;;;;;;;;5071845;28;20417;-79
2023/01/13 05:20:38;;;;;;;1.60;0.70;;;;;;;;;;5074487;28;20474;-79
2023/01/13 05:25:49;;;;;;;1.50;0.55;;;;;;;;;;5073804;28;20421;-80
2023/01/13 05:28:15;;;;;;;1.53;0.80;;;;;;;;;;5075166;28;20405;-79
2023/01/13 05:30:43;;;;;;;1.70;0.70;;;;;;;;;;5075100;28;20415;-79
2023/01/13 05:33:13;;;;;;;1.95;0.75;;;;;;;;;;5075228;28;20460;-79
2023/01/13 05:35:39;;;;;;;1.33;0.70;;;;;;;;;;5073683;28;20379;-79
2023/01/13 05:38:05;;;;;;;2.60;0.68;;;;;;;;;;5055135;28;20471;-79
2023/01/13 05:43:20;;;;;;;1.27;0.80;;;;;;;;;;5069323;28;20394;-79
2023/01/13 05:45:47;;;;;;;1.45;0.70;;;;;;;;;;5068687;28;20381;-79
2023/01/13 05:48:14;;;;;;;2.60;1.00;;;;;;;;;;5088519;28;20412;-79
2023/01/13 05:50:40;;;;;;;2.20;0.77;;;;;;;;;;5089824;28;20451;-79
2023/01/13 05:53:06;;;;;;;2.15;0.80;;;;;;;;;;5079544;28;20375;-79
2023/01/13 05:55:32;;;;;;;1.67;0.70;;;;;;;;;;5068282;28;20386;-79
2023/01/13 05:57:58;;;;;;;1.08;0.50;;;;;;;;;;5069696;28;20372;-79
2023/01/13 06:00:24;;;;;;;1.40;0.60;;;;;;;;;;5059373;28;20393;-79
2023/01/13 06:02:50;;;;;;;1.30;0.80;;;;;;;;;;5044326;28;20379;-81
2023/01/13 06:05:16;;;;;;;1.73;0.83;;;;;;;;;;5070625;28;20387;-80
2023/01/13 06:07:42;;;;;;;1.73;0.70;;;;;;;;;;5062071;28;20412;-81
2023/01/13 06:10:08;;;;;;;1.40;0.50;;;;;;;;;;5072397;28;20512;-81
2023/01/13 06:12:35;;;;;;;2.22;0.80;;;;;;;;;;5041200;28;20403;-81
2023/01/13 06:15:01;;;;;;;2.22;0.77;;;;;;;;;;5040994;28;20383;-81
2023/01/13 06:17:27;;;;;;;1.73;0.60;;;;;;;;;;5044152;28;20531;-81
2023/01/13 06:19:53;;;;;;;1.30;0.65;;;;;;;;;;5044637;28;20389;-82
2023/01/13 06:22:24;;;;;;;1.33;0.70;;;;;;;;;;5035709;28;20384;-81
2023/01/13 06:24:52;;;;;;;1.38;0.80;;;;;;;;;;5017299;28;20391;-81
2023/01/13 06:27:19;;;;;;;1.27;0.68;;;;;;;;;;5039444;28;20383;-81
2023/01/13 06:29:45;;;;;;;1.50;0.70;;;;;;;;;;5052813;28;20410;-81
2023/01/13 06:32:14;;;;;;;1.77;0.68;;;;;;;;;;5058205;28;20531;-81
2023/01/13 06:34:41;;;;;;;1.73;0.82;;;;;;;;;;5031140;28;20470;-81
2023/01/13 06:37:07;;;;;;;1.38;0.50;;;;;;;;;;5051750;28;21135;-81
2023/01/13 06:39:34;;;;;;;1.77;0.60;;;;;;;;;;5040173;28;20405;-81
2023/01/13 06:44:46;;;;;;;1.58;0.73;;;;;;;;;;5067216;28;20367;-81
2023/01/13 06:47:13;;;;;;;1.60;0.70;;;;;;;;;;5021536;28;20402;-81
2023/01/13 06:49:39;;;;;;;1.33;0.85;;;;;;;;;;5040559;28;20745;-81
2023/01/13 06:52:05;;;;;;;2.95;0.75;;;;;;;;;;5041692;28;20418;-82
2023/01/13 06:54:31;;;;;;;1.75;0.70;;;;;;;;;;5039309;28;21093;-81
2023/01/13 06:56:57;;;;;;;1.45;0.73;;;;;;;;;;5034947;28;20422;-81
2023/01/13 06:59:24;;;;;;;1.27;0.50;;;;;;;;;;5034762;28;20379;-82
2023/01/13 07:01:50;;;;;;;1.23;0.60;;;;;;;;;;5036039;28;20391;-81
2023/01/13 07:04:16;;;;;;;2.53;0.70;;;;;;;;;;5073936;28;20386;-82
2023/01/13 07:06:42;;;;;;;1.52;0.70;;;;;;;;;;5074577;28;20395;-81
2023/01/13 07:09:08;;;;;;;1.40;0.60;;;;;;;;;;5074876;28;20383;-82
2023/01/13 07:11:34;;;;;;;1.70;0.70;;;;;;;;;;5074331;28;20418;-81
2023/01/13 07:16:45;;;;;;;0.65;0.50;;;;;;;;;;5072120;28;20417;-82
2023/01/13 07:19:11;;;;;;;1.50;0.60;;;;;;;;;;5054054;28;20778;-80
2023/01/13 07:21:37;;;;;;;1.38;0.63;;;;;;;;;;5047478;28;20873;-82
2023/01/13 07:24:03;;;;;;;1.77;0.68;;;;;;;;;;5073775;28;20390;-81
2023/01/13 07:26:29;;;;;;;1.33;0.80;;;;;;;;;;5073646;28;20380;-82
2023/01/13 07:28:55;;;;;;;1.97;0.70;;;;;;;;;;5072909;28;20455;-82
2023/01/13 07:31:21;;;;;;;1.73;0.73;;;;;;;;;;5073351;28;20880;-82
2023/01/13 07:33:47;;;;;;;1.33;0.60;;;;;;;;;;5055491;28;20761;-81
2023/01/13 07:36:13;;;;;;;1.35;0.70;;;;;;;;;;5073142;28;20401;-82
2023/01/13 07:38:39;;;;;;;1.77;0.60;;;;;;;;;;5073095;28;20368;-82
2023/01/13 07:43:51;;;;;;;1.20;0.60;;;;;;;;;;5039386;28;20379;-82
2023/01/13 07:46:17;;;;;;;1.60;0.60;;;;;;;;;;5070776;28;20384;-83
2023/01/13 07:48:44;;;;;;;2.22;0.77;;;;;;;;;;5064984;28;20377;-82
2023/01/13 07:51:10;;;;;;;1.83;0.70;;;;;;;;;;5051088;28;20408;-82
2023/01/13 07:53:37;;;;;;;2.08;0.70;;;;;;;;;;5062443;28;20458;-83
2023/01/13 07:56:04;;;;;;;2.00;0.80;;;;;;;;;;5072656;28;20876;-82
2023/01/13 07:58:32;;;;;;;1.85;0.90;;;;;;;;;;5067853;28;20437;-82
2023/01/13 08:00:58;;;;;;;1.98;0.80;;;;;;;;;;5043481;28;20471;-83
2023/01/13 08:03:24;;;;;;;1.52;0.73;;;;;;;;;;5072500;28;20376;-82
2023/01/13 08:05:50;;;;;;;1.52;0.80;;;;;;;;;;5061769;28;20466;-83
2023/01/13 08:08:16;;;;;;;1.92;0.85;;;;;;;;;;5053622;28;20389;-83
2023/01/13 08:10:43;;;;;;;1.63;0.50;;;;;;;;;;5060349;28;20413;-82
2023/01/13 08:13:21;;;;;;;1.63;0.60;;;;;;;;;;5072452;28;20407;-82
2023/01/13 08:15:48;;;;;;;1.58;0.63;;;;;;;;;;5071258;28;20467;-83
2023/01/13 08:18:16;;;;;;;2.13;0.90;;;;;;;;;;5072226;28;20425;-82
2023/01/13 08:20:42;;;;;;;1.38;0.77;;;;;;;;;;5071946;28;20498;-82
2023/01/13 08:23:08;;;;;;;1.70;0.68;;;;;;;;;;5063036;28;20384;-82
2023/01/13 08:25:34;;;;;;;2.30;0.65;;;;;;;;;;5072117;28;20384;-83
2023/01/13 08:28:00;;;;;;;1.63;0.60;;;;;;;;;;5071760;28;20387;-82
2023/01/13 08:30:27;;;;;;;1.83;0.70;;;;;;;;;;5071904;28;20804;-82
2023/01/13 08:32:53;;;;;;;2.10;0.70;;;;;;;;;;5059231;28;20372;-82
2023/01/13 08:35:19;;;;;;;1.50;0.70;;;;;;;;;;5054320;28;20907;-82
2023/01/13 08:37:45;;;;;;;1.15;0.68;;;;;;;;;;5071986;28;20390;-82
2023/01/13 08:40:12;;;;;;;1.70;0.70;;;;;;;;;;5071881;28;20379;-82
2023/01/13 08:42:38;;;;;;;1.05;0.57;;;;;;;;;;5071901;28;20387;-82
2023/01/13 08:45:05;;;;;;;1.50;0.70;;;;;;;;;;5071979;28;20726;-83
2023/01/13 08:47:31;;;;;;;1.60;1.20;;;;;;;;;;5071753;28;20437;-83
2023/01/13 08:49:57;;;;;;;2.08;0.80;;;;;;;;;;5071817;28;20372;-83
2023/01/13 08:52:23;;;;;;;1.10;0.70;;;;;;;;;;5071836;28;20900;-83
2023/01/13 08:54:49;;;;;;;0.80;0.70;;;;;;;;;;5071238;28;20505;-83
2023/01/13 08:57:18;;;;;;;1.95;1.35;;;;;;;;;;5071885;28;20387;-83
2023/01/13 08:59:44;;;;;;;1.50;0.63;;;;;;;;;;5068283;28;20401;-83
2023/01/13 09:02:15;;;;;;;1.40;0.70;;;;;;;;;;5061501;28;20380;-83
2023/01/13 09:04:41;;;;;;;1.17;0.50;;;;;;;;;;5051537;28;20892;-83
2023/01/13 09:07:07;;;;;;;0.77;0.67;;;;;;;;;;5052220;28;20388;-83
2023/01/13 09:09:33;;;;;;;1.67;0.70;;;;;;;;;;5074590;28;20416;-83
2023/01/13 09:14:43;;;;;;;1.10;0.80;;;;;;;;;;5075870;28;20375;-82
2023/01/13 09:17:09;;;;;;;1.90;0.80;;;;;;;;;;5081576;28;20458;-82
2023/01/13 09:19:36;;;;;;;1.58;1.10;;;;;;;;;;5058034;28;20471;-83
2023/01/13 09:22:02;;;;;;;2.55;0.90;;;;;;;;;;5072199;28;20916;-83
2023/01/13 09:24:28;;;;;;;1.20;0.70;;;;;;;;;;5072307;28;20403;-83
2023/01/13 09:26:54;;;;;;;3.75;0.77;;;;;;;;;;5071720;28;20881;-82
2023/01/13 09:29:20;;;;;;;1.65;0.77;;;;;;;;;;5071281;28;20403;-83
2023/01/13 09:31:46;;;;;;;1.13;0.70;;;;;;;;;;5071522;28;20472;-83
2023/01/13 09:36:58;;;;;;;1.05;0.70;;;;;;;;;;5064289;28;20407;-82
2023/01/13 09:39:24;;;;;;;1.33;0.60;;;;;;;;;;5071560;28;20425;-82
2023/01/13 09:44:55;;;;;;;1.83;0.82;;;;;;;;;;5057009;28;20371;-83
2023/01/13 09:47:24;;;;;;;1.30;0.70;;;;;;;;;;5071382;28;20383;-83
2023/01/13 09:49:50;;;;;;;1.40;0.50;;;;;;;;;;5071210;28;20391;-83
2023/01/13 09:52:18;;;;;;;1.13;0.60;;;;;;;;;;5053254;28;20974;-82
2023/01/13 09:54:57;;;;;;;1.38;0.50;;;;;;;;;;5046364;28;20372;-83
2023/01/13 09:57:26;;;;;;;1.15;0.60;;;;;;;;;;5063467;28;20379;-83
2023/01/13 09:59:52;;;;;;;0.80;0.50;;;;;;;;;;5071076;28;20915;-82
2023/01/13 10:02:34;;;;;;;1.83;0.60;;;;;;;;;;5054037;28;20387;-83
2023/01/13 10:05:03;;;;;;;1.20;0.60;;;;;;;;;;5071110;28;20402;-83
2023/01/13 10:07:31;;;;;;;1.67;0.70;;;;;;;;;;5073928;28;20383;-83
2023/01/13 10:09:58;;;;;;;1.23;0.60;;;;;;;;;;5074668;28;20380;-83
2023/01/13 10:15:14;;;;;;;1.42;0.55;;;;;;;;;;5071365;28;20440;-83
2023/01/13 10:18:02;;;;;;;0.60;0.50;;;;;;;;;;5049522;28;20384;-83
2023/01/13 10:20:31;;;;;;;1.15;0.80;;;;;;;;;;5071987;28;20390;-83
2023/01/13 10:22:57;;;;;;;1.15;0.43;;;;;;;;;;5062966;28;20447;-83
2023/01/13 10:25:42;;;;;;;0.85;0.47;;;;;;;;;;5073517;28;20874;-83
2023/01/13 10:28:10;;;;;;;0.40;0.40;;;;;;;;;;5045634;28;20814;-83
2023/01/13 10:30:38;;;;;;;1.63;1.00;;;;;;;;;;5074201;28;20382;-83
2023/01/13 10:33:16;;;;;;;0.70;0.50;;;;;;;;;;5074201;28;20384;-82
2023/01/13 10:35:49;;;;;;;0.85;0.55;;;;;;;;;;5074101;28;21089;-83
2023/01/13 10:38:17;;;;;;;1.00;0.30;;;;;;;;;;5074245;28;20459;-83
2023/01/13 10:40:53;;;;;;;0.75;0.50;;;;;;;;;;5073851;28;20430;-83
2023/01/13 10:43:19;;;;;;;0.90;0.50;;;;;;;;;;5074177;28;20434;-83
2023/01/13 10:46:04;;;;;;;1.25;0.40;;;;;;;;;;5073967;28;20462;-83
2023/01/13 10:48:44;;;;;;;1.67;0.40;;;;;;;;;;5073972;28;20415;-83
2023/01/13 10:51:22;;;;;;;0.35;0.20;;;;;;;;;;5073663;28;20911;-83
2023/01/13 10:53:53;;;;;;;1.38;0.30;;;;;;;;;;5073890;28;20372;-82
2023/01/13 10:56:20;;;;;;;1.60;0.40;;;;;;;;;;5070154;28;20372;-82
2023/01/13 10:58:46;;;;;;;0.57;0.30;;;;;;;;;;5051336;28;20485;-82
2023/01/13 11:01:19;;;;;;;1.15;0.32;;;;;;;;;;5055619;28;20918;-82
2023/01/13 11:03:46;;;;;;;1.30;0.40;;;;;;;;;;5073577;28;20412;-82
2023/01/13 11:06:20;;;;;;;0.38;0.30;;;;;;;;;;5055446;28;20386;-82
2023/01/13 11:08:48;;;;;;;1.10;0.40;;;;;;;;;;5052060;28;20388;-81
2023/01/13 11:11:26;;;;;;;1.17;0.43;;;;;;;;;;5041807;28;20415;-81
2023/01/13 11:16:39;;;;;;;1.17;0.25;;;;;;;;;;5040017;28;20423;-82
2023/01/13 11:19:12;;;;;;;0.20;0.20;;;;;;;;;;5042223;28;20474;-82
2023/01/13 11:21:48;;;;;;;0.60;0.30;;;;;;;;;;5040945;28;20424;-81
2023/01/13 11:24:18;;;;;;;0.37;0.30;;;;;;;;;;5052465;28;20384;-82
2023/01/13 11:26:47;;;;;;;0.38;0.20;;;;;;;;;;5073079;28;20394;-82
2023/01/13 11:29:31;;;;;;;0.43;0.30;;;;;;;;;;5072826;28;20404;-81
2023/01/13 11:32:04;;;;;;;0.90;0.30;;;;;;;;;;5072846;28;20404;-81
2023/01/13 11:34:31;;;;;;;0.60;0.47;;;;;;;;;;5073353;28;20380;-81
2023/01/13 11:36:58;;;;;;;0.30;0.20;;;;;;;;;;5072909;28;20375;-81
2023/01/13 11:39:33;;;;;;;0.40;0.30;;;;;;;;;;5072723;28;20737;-81
2023/01/13 11:42:20;;;;;;;0.55;0.30;;;;;;;;;;5061516;28;20419;-81
2023/01/13 11:44:51;;;;;;;0.37;0.33;;;;;;;;;;5036819;28;20900;-81
2023/01/13 11:47:20;;;;;;;0.30;0.30;;;;;;;;;;5072918;28;20380;-81
2023/01/13 11:49:47;;;;;;;0.50;0.30;;;;;;;;;;5042640;28;20425;-81
2023/01/13 11:52:36;;;;;;;1.02;0.30;;;;;;;;;;5050515;28;20484;-82
2023/01/13 11:55:15;;;;;;;0.77;0.20;;;;;;;;;;5023449;28;20474;-82
2023/01/13 11:57:49;;;;;;;0.57;0.30;;;;;;;;;;5033043;28;20415;-81
2023/01/13 12:00:27;;;;;;;0.33;0.27;;;;;;;;;;5034945;28;20559;-81
2023/01/13 12:03:09;;;;;;;0.57;0.25;;;;;;;;;;5039653;28;20379;-84
2023/01/13 12:05:43;;;;;;;0.63;0.30;;;;;;;;;;5035318;28;20931;-81
2023/01/13 12:08:18;;;;;;;0.73;0.30;;;;;;;;;;5019654;28;20477;-81
2023/01/13 12:10:50;;;;;;;0.50;0.20;;;;;;;;;;5037321;28;20411;-83
2023/01/13 12:13:35;;;;;;;0.80;0.32;;;;;;;;;;5034103;28;20376;-83
2023/01/13 12:16:08;;;;;;;1.88;0.80;;;;;;;;;;5034858;28;20375;-83
2023/01/13 12:18:33;;;;;;;0.70;0.70;;;;;;;;;;5041369;28;20435;-83
2023/01/13 12:21:03;;;;;;;0.80;0.50;;;;;;;;;;5033937;28;20461;-82
2023/01/13 12:23:34;;;;;;;1.05;0.38;;;;;;;;;;5034153;28;20387;-83
2023/01/13 12:26:21;;;;;;;0.90;0.20;;;;;;;;;;5039042;28;20896;-80
2023/01/13 12:28:50;;;;;;;0.70;0.20;;;;;;;;;;5052420;28;20758;-81
2023/01/13 12:31:17;;;;;;;1.40;0.43;;;;;;;;;;5054192;28;20893;-80
2023/01/13 12:34:06;;;;;;;0.63;0.40;;;;;;;;;;5071962;28;20480;-80
2023/01/13 12:36:50;;;;;;;1.00;0.50;;;;;;;;;;5071944;28;20371;-80
2023/01/13 12:39:22;;;;;;;1.95;1.17;;;;;;;;;;5073174;28;20888;-80
2023/01/13 12:44:59;;;;;;;0.82;0.38;;;;;;;;;;5075172;28;20397;-82
2023/01/13 12:47:51;;;;;;;0.85;0.30;;;;;;;;;;5080469;28;20414;-82
2023/01/13 12:50:23;;;;;;;0.85;0.40;;;;;;;;;;5058129;28;20395;-82
2023/01/13 12:53:00;;;;;;;1.10;0.50;;;;;;;;;;5044540;28;20400;-83
2023/01/13 12:55:33;;;;;;;1.50;0.50;;;;;;;;;;5052969;28;20392;-83
2023/01/13 12:57:59;;;;;;;1.30;0.50;;;;;;;;;;5072280;28;20376;-83
2023/01/13 13:00:36;;;;;;;0.85;0.50;;;;;;;;;;5065131;28;20371;-82
2023/01/13 13:03:12;;;;;;;1.30;0.40;;;;;;;;;;5065778;28;20376;-82
2023/01/13 13:05:46;;;;;;;2.00;0.70;;;;;;;;;;5071694;28;20880;-83
2023/01/13 13:08:18;;;;;;;0.80;0.60;;;;;;;;;;5071718;28;20378;-85
2023/01/13 13:10:55;;;;;;;1.17;0.30;;;;;;;;;;5071583;28;20378;-85
2023/01/13 13:13:39;;;;;;;0.77;0.40;;;;;;;;;;5071631;28;20384;-86
2023/01/13 13:16:35;;;;;;;2.20;0.60;;;;;;;;;;5071580;28;20372;-85
2023/01/13 13:19:20;;;;;;;1.65;0.80;;;;;;;;;;5071561;28;20472;-86
2023/01/13 13:22:06;;;;;;;1.42;0.90;;;;;;;;;;5071454;28;20403;-87
2023/01/13 13:24:32;;;;;;;1.13;0.52;;;;;;;;;;5071207;28;20383;-86
2023/01/13 13:27:15;;;;;;;2.35;0.80;;;;;;;;;;5054601;28;20409;-84
2023/01/13 13:29:44;;;;;;;1.80;1.33;;;;;;;;;;5048066;28;20500;-85
2023/01/13 13:32:29;;;;;;;2.33;1.00;;;;;;;;;;5071412;28;20620;-86
2023/01/13 13:34:55;;;;;;;1.60;0.73;;;;;;;;;;5062106;28;20374;-85
2023/01/13 13:37:24;;;;;;;1.40;0.90;;;;;;;;;;5048818;28;20466;-85
2023/01/13 13:48:21;;;;;;;2.10;0.65;;;;;;;;;;5042089;28;20900;-84
2023/01/13 13:50:48;;;;;;;1.70;0.57;;;;;;;;;;5043282;28;20429;-83
2023/01/13 13:53:15;;;;;;;1.52;0.70;;;;;;;;;;5037316;28;20473;-85
2023/01/13 13:55:51;;;;;;;1.40;0.82;;;;;;;;;;5036809;28;20383;-84
2023/01/13 13:58:17;;;;;;;1.55;0.93;;;;;;;;;;5053597;28;20379;-85
2023/01/13 14:00:46;;;;;;;1.80;0.80;;;;;;;;;;5067826;28;20857;-84
2023/01/13 14:03:27;;;;;;;2.05;0.88;;;;;;;;;;5073097;28;20384;-84
2023/01/13 14:05:56;;;;;;;1.48;0.82;;;;;;;;;;5066285;28;20545;-84
2023/01/13 14:08:23;;;;;;;3.13;0.90;;;;;;;;;;5051739;28;20379;-84
2023/01/13 14:10:50;;;;;;;2.85;1.00;;;;;;;;;;5069726;28;20431;-84
2023/01/13 14:13:29;;;;;;;1.80;0.65;;;;;;;;;;5074656;28;20884;-84
2023/01/13 14:15:58;;;;;;;4.03;0.90;;;;;;;;;;5074773;28;20368;-84
2023/01/13 14:18:25;;;;;;;1.75;0.80;;;;;;;;;;5074727;28;20368;-84
2023/01/13 14:20:57;;;;;;;2.65;0.70;;;;;;;;;;5057130;28;20389;-85
2023/01/13 14:23:26;;;;;;;2.40;0.98;;;;;;;;;;5066996;28;20383;-84
2023/01/13 14:25:52;;;;;;;1.50;0.60;;;;;;;;;;5039877;28;21158;-84
2023/01/13 14:28:18;;;;;;;1.92;0.70;;;;;;;;;;5037980;28;20434;-84
2023/01/13 14:30:44;;;;;;;2.00;0.65;;;;;;;;;;5074171;28;20376;-84
2023/01/13 14:33:14;;;;;;;2.15;0.60;;;;;;;;;;5061524;28;20385;-84
2023/01/13 14:36:00;;;;;;;1.55;0.55;;;;;;;;;;5069702;28;20441;-84
2023/01/13 14:38:26;;;;;;;2.25;0.70;;;;;;;;;;5074039;28;20380;-84
2023/01/13 14:40:52;;;;;;;2.65;1.10;;;;;;;;;;5074002;28;20788;-85
2023/01/13 14:43:20;;;;;;;2.33;1.40;;;;;;;;;;5074186;28;20919;-85
2023/01/13 14:46:00;;;;;;;2.38;0.80;;;;;;;;;;5059974;28;20384;-84
2023/01/13 14:48:35;;;;;;;2.42;1.77;;;;;;;;;;5073953;28;20380;-84
2023/01/13 14:51:04;;;;;;;3.87;1.43;;;;;;;;;;5049693;28;20461;-84
2023/01/13 14:53:37;;;;;;;2.83;0.75;;;;;;;;;;5054149;28;20509;-84
2023/01/13 14:56:22;;;;;;;2.38;0.95;;;;;;;;;;5046575;28;20372;-85
2023/01/13 14:58:48;;;;;;;2.30;0.70;;;;;;;;;;5073862;28;20371;-84
2023/01/13 15:01:27;;;;;;;1.35;0.32;;;;;;;;;;5056485;28;20390;-84
2023/01/13 15:03:53;;;;;;;0.60;0.30;;;;;;;;;;5073733;28;20384;-84
2023/01/13 15:06:23;;;;;;;1.10;0.20;;;;;;;;;;5073575;28;20391;-83
2023/01/13 15:08:49;;;;;;;1.02;0.20;;;;;;;;;;5074011;28;20380;-83
2023/01/13 15:11:21;;;;;;;0.38;0.20;;;;;;;;;;5073276;28;20403;-83
2023/01/13 15:13:48;;;;;;;0.53;0.20;;;;;;;;;;5073382;28;20465;-83
2023/01/13 15:16:22;;;;;;;0.57;0.30;;;;;;;;;;5055422;28;20424;-83
2023/01/13 15:18:48;;;;;;;1.60;0.50;;;;;;;;;;5073183;28;20433;-83
2023/01/13 15:21:14;;;;;;;0.63;0.32;;;;;;;;;;5073218;28;20383;-83
2023/01/13 15:23:40;;;;;;;0.77;0.30;;;;;;;;;;5067398;28;20539;-83
2023/01/13 15:26:15;;;;;;;1.10;0.30;;;;;;;;;;5060011;28;20467;-83
2023/01/13 15:28:41;;;;;;;0.80;0.35;;;;;;;;;;5072927;28;20447;-83
2023/01/13 15:31:08;;;;;;;0.60;0.30;;;;;;;;;;5072918;28;20469;-83
2023/01/13 15:33:34;;;;;;;1.15;0.40;;;;;;;;;;5072995;28;20380;-83
2023/01/13 15:36:00;;;;;;;0.90;0.40;;;;;;;;;;5071098;28;20733;-83
2023/01/13 15:38:27;;;;;;;1.50;0.50;;;;;;;;;;5063228;28;20379;-83
2023/01/13 15:40:53;;;;;;;0.65;0.40;;;;;;;;;;5072785;28;20383;-83
2023/01/13 15:49:08;;;;;;;1.75;0.57;;;;;;;;;;5072960;28;20810;-83
2023/01/13 15:51:35;;;;;;;1.13;0.85;;;;;;;;;;5072530;28;20407;-83
2023/01/13 15:54:01;;;;;;;1.17;0.60;;;;;;;;;;5072523;28;20425;-83
2023/01/13 15:56:27;;;;;;;1.67;0.90;;;;;;;;;;5055598;28;20385;-83
2023/01/13 15:58:54;;;;;;;0.98;0.85;;;;;;;;;;5063259;28;20376;-83